Flugplatz Berlin-Tegel International

Bericht für EDDT

vom 20.10. um 18:20 UTC

Wind 4 kt aus 70°

Sichtweite 10 km oder mehr

gute Sicht, keine Wolken < 5000 ft, keine CB, keine Wettererscheinungen (CAVOK)

Temperatur 17.0°C

Taupunkt 13.0°C

Luftfeuchtigkeit 77%

Luftdruck 1011 hPa

keine wesentliche Wetteränderung innerhalb den nächsten 2 Stunden zu erwarten

EDDT 201820Z 07004KT CAVOK 17/13 Q1011 NOSIG

Prognose für EDDT

vom 20.10. um 00:00 UTC

Zwischen 00:00 UTC und 00:00 UTC

Wind 5 kt aus 120°

Sichtweite 10 km oder mehr

keine signifikanten Wettererscheinungen

keine Wolken


Am 21.10. zwischen 00:00 UTC und 00:00 UTC zeitweise mit einer Wahrscheinlichkeit von 30%

Sichtweite 4000 m

Nebelschwaden


Am 21.10. zwischen 00:00 und 00:00 UTC übergehend zu

Wind 5 kt aus 240°

Sichtweite 10 km oder mehr

keine signifikanten Wettererscheinungen

keine Wolken

TAF EDDT 201700Z 2018/2118 12005KT CAVOK PROB30 TEMPO 2103/2106 4000 BCFG BECMG 2110/2113 24005KT
Impressum